createdAt,value
2019-02-23T00:00:08.908Z,95.76
2019-02-23T00:02:40.410Z,95.57
2019-02-23T00:05:11.627Z,95.71
2019-02-23T00:07:43.032Z,95.88
2019-02-23T00:10:14.406Z,95.86
2019-02-23T00:12:45.688Z,95.86
2019-02-23T00:15:17.102Z,95.96
2019-02-23T00:17:48.376Z,96.06
2019-02-23T00:20:19.774Z,96.16
2019-02-23T00:22:51.238Z,96.24
2019-02-23T00:25:26.029Z,96.27
2019-02-23T00:27:57.501Z,96.48
2019-02-23T00:30:29.017Z,96.27
2019-02-23T00:33:00.389Z,96.21
2019-02-23T00:35:31.824Z,96.29
2019-02-23T00:38:03.140Z,96.34
2019-02-23T00:40:34.454Z,96.45
2019-02-23T00:43:05.909Z,96.66
2019-02-23T00:45:37.235Z,96.64
2019-02-23T00:48:08.778Z,96.82
2019-02-23T00:50:40.239Z,97.02
2019-02-23T00:53:11.627Z,97.19
2019-02-23T00:55:42.992Z,97.08
2019-02-23T00:58:14.383Z,97.24
2019-02-23T01:00:45.604Z,97.24
2019-02-23T01:06:06.466Z,97.21
2019-02-23T01:08:37.853Z,97.41
2019-02-23T01:11:09.151Z,97.50
2019-02-23T01:15:58.396Z,97.44
2019-02-23T01:18:29.381Z,97.41
2019-02-23T01:21:00.718Z,97.42
2019-02-23T01:23:32.177Z,97.36
2019-02-23T01:26:05.315Z,97.41
2019-02-23T01:28:36.637Z,97.37
2019-02-23T01:31:11.798Z,97.42
2019-02-23T01:33:42.978Z,97.37
2019-02-23T01:36:14.507Z,97.34
2019-02-23T01:38:46.203Z,97.42
2019-02-23T01:41:17.551Z,97.21
2019-02-23T01:43:48.975Z,97.37
2019-02-23T01:46:20.618Z,97.60
2019-02-23T01:48:52.102Z,97.70
2019-02-23T01:51:23.535Z,97.76
2019-02-23T01:53:54.865Z,97.91
2019-02-23T01:56:27.162Z,97.96
2019-02-23T01:58:58.609Z,98.10
2019-02-23T02:01:29.886Z,98.00
2019-02-23T02:04:01.392Z,98.06
2019-02-23T02:06:33.689Z,98.21
2019-02-23T02:09:05.690Z,98.35
2019-02-23T02:11:37.548Z,98.60
2019-02-23T02:14:09.070Z,98.50
2019-02-23T02:16:40.587Z,98.42
2019-02-23T02:19:14.311Z,98.71
2019-02-23T02:21:45.892Z,98.90
2019-02-23T02:24:17.216Z,98.99
2019-02-23T02:26:51.873Z,99.25
2019-02-23T02:29:25.586Z,99.31
2019-02-23T02:31:57.063Z,99.24
2019-02-23T02:34:28.393Z,99.26
2019-02-23T02:36:59.562Z,99.54
2019-02-23T02:39:30.867Z,99.82
2019-02-23T02:42:02.083Z,99.93
2019-02-23T02:44:36.233Z,100.00
2019-02-23T02:47:07.552Z,100.00
2019-02-23T02:49:38.915Z,100.00
2019-02-23T02:52:10.224Z,100.00
2019-02-23T02:54:41.535Z,100.00
2019-02-23T02:57:12.837Z,100.00
2019-02-23T02:59:44.114Z,100.00
2019-02-23T03:02:15.404Z,100.00
2019-02-23T03:04:46.679Z,100.00
2019-02-23T03:07:18.087Z,100.00
2019-02-23T03:09:49.361Z,100.00
2019-02-23T03:12:20.795Z,100.00
2019-02-23T03:14:51.997Z,100.00
2019-02-23T03:17:23.373Z,100.00
2019-02-23T03:19:54.743Z,100.00
2019-02-23T03:22:26.083Z,100.00
2019-02-23T03:24:57.558Z,100.00
2019-02-23T03:27:28.854Z,100.00
2019-02-23T03:30:00.395Z,100.00
2019-02-23T03:32:50.653Z,100.00
2019-02-23T03:35:22.007Z,100.00
2019-02-23T03:37:53.241Z,100.00
2019-02-23T03:40:24.544Z,100.00
2019-02-23T03:42:55.793Z,100.00
2019-02-23T03:45:27.140Z,100.00
2019-02-23T03:47:58.399Z,100.00
2019-02-23T03:50:29.691Z,100.00
2019-02-23T03:53:00.953Z,100.00
2019-02-23T03:55:32.344Z,100.00
2019-02-23T03:58:03.733Z,100.00
2019-02-23T04:00:35.091Z,100.00
2019-02-23T04:03:06.366Z,100.00
2019-02-23T04:05:37.646Z,100.00
2019-02-23T04:08:09.091Z,100.00
2019-02-23T04:10:40.356Z,100.00
2019-02-23T04:13:11.621Z,100.00
2019-02-23T04:15:42.944Z,100.00
2019-02-23T04:18:14.265Z,100.00
2019-02-23T04:20:45.562Z,100.00
2019-02-23T04:23:16.747Z,100.00
2019-02-23T04:25:48.113Z,100.00
2019-02-23T04:28:19.417Z,100.00
2019-02-23T04:30:50.814Z,100.00
2019-02-23T04:33:22.082Z,100.00
2019-02-23T04:35:53.324Z,100.00
2019-02-23T04:38:24.684Z,100.00
2019-02-23T04:40:56.085Z,100.00
2019-02-23T04:43:27.504Z,100.00
2019-02-23T04:45:58.887Z,100.00
2019-02-23T04:48:30.163Z,100.00
2019-02-23T04:51:13.445Z,100.00
2019-02-23T04:53:34.490Z,100.00
2019-02-23T04:56:05.747Z,100.00
2019-02-23T04:58:37.039Z,100.00
2019-02-23T05:01:08.368Z,100.00
2019-02-23T05:03:39.672Z,100.00
2019-02-23T05:06:11.210Z,100.00
2019-02-23T05:08:42.396Z,100.00
2019-02-23T05:11:13.720Z,100.00
2019-02-23T05:13:45.015Z,100.00
2019-02-23T05:16:16.322Z,100.00
2019-02-23T05:18:47.593Z,100.00
2019-02-23T05:21:26.186Z,100.00
2019-02-23T05:23:51.818Z,100.00
2019-02-23T05:26:23.165Z,100.00
2019-02-23T05:28:54.409Z,100.00
2019-02-23T05:31:25.603Z,100.00
2019-02-23T05:33:56.941Z,100.00
2019-02-23T05:36:28.250Z,100.00
2019-02-23T05:38:59.426Z,100.00
2019-02-23T05:41:30.651Z,100.00
2019-02-23T05:44:01.905Z,100.00
2019-02-23T05:46:30.526Z,100.00
2019-02-23T05:49:03.218Z,100.00
2019-02-23T05:51:38.723Z,100.00
2019-02-23T05:54:07.498Z,100.00
2019-02-23T05:56:38.736Z,100.00
2019-02-23T05:59:10.047Z,100.00
2019-02-23T06:01:41.447Z,100.00
2019-02-23T06:04:12.737Z,100.00
2019-02-23T06:06:44.089Z,100.00
2019-02-23T06:09:15.430Z,100.00
2019-02-23T06:11:46.751Z,100.00
2019-02-23T06:14:18.063Z,100.00
2019-02-23T06:16:49.223Z,100.00
2019-02-23T06:19:20.453Z,100.00
2019-02-23T06:21:54.288Z,100.00
2019-02-23T06:24:24.675Z,100.00
2019-02-23T06:26:56.015Z,100.00
2019-02-23T06:29:27.332Z,100.00
2019-02-23T06:31:58.780Z,100.00
2019-02-23T06:34:30.042Z,100.00
2019-02-23T06:37:01.433Z,100.00
2019-02-23T06:39:32.791Z,100.00
2019-02-23T06:42:04.108Z,100.00
2019-02-23T06:44:35.384Z,100.00
2019-02-23T06:47:06.682Z,100.00
2019-02-23T06:49:38.005Z,100.00
2019-02-23T06:52:09.336Z,100.00
2019-02-23T06:54:40.620Z,100.00
2019-02-23T06:57:11.911Z,100.00
2019-02-23T06:59:43.171Z,100.00
2019-02-23T07:02:14.489Z,100.00
2019-02-23T07:04:45.812Z,100.00
2019-02-23T07:07:17.297Z,100.00
2019-02-23T07:09:48.649Z,100.00
2019-02-23T07:12:19.988Z,100.00
2019-02-23T07:14:51.255Z,100.00
2019-02-23T07:17:22.523Z,100.00
2019-02-23T07:19:53.716Z,100.00
2019-02-23T07:22:25.024Z,100.00
2019-02-23T07:24:56.316Z,100.00
2019-02-23T07:27:27.628Z,100.00
2019-02-23T07:29:58.858Z,100.00
2019-02-23T07:32:30.130Z,100.00
2019-02-23T07:35:01.463Z,100.00
2019-02-23T07:37:32.797Z,100.00
2019-02-23T07:40:04.121Z,100.00
2019-02-23T07:42:35.293Z,100.00
2019-02-23T07:45:06.829Z,100.00
2019-02-23T07:47:38.164Z,99.50
2019-02-23T07:50:10.739Z,99.11
2019-02-23T07:52:42.093Z,99.01
2019-02-23T07:55:13.438Z,99.57
2019-02-23T07:57:44.889Z,99.24
2019-02-23T08:00:35.136Z,94.16
2019-02-23T08:03:06.896Z,94.34
2019-02-23T08:05:38.121Z,93.83
2019-02-23T08:08:12.469Z,91.62
2019-02-23T08:10:43.917Z,86.48
2019-02-23T08:13:15.231Z,84.80
2019-02-23T08:15:46.573Z,86.63
2019-02-23T08:18:17.953Z,85.37
2019-02-23T08:20:49.263Z,85.16
2019-02-23T08:23:20.643Z,80.34
2019-02-23T08:25:51.997Z,79.89
2019-02-23T08:28:23.341Z,76.24
2019-02-23T08:30:54.625Z,73.97
2019-02-23T08:33:25.992Z,68.88
2019-02-23T08:35:57.262Z,70.46
2019-02-23T08:38:28.703Z,68.40
2019-02-23T08:40:59.957Z,63.80
2019-02-23T08:43:31.245Z,63.63
2019-02-23T08:46:02.572Z,62.14
2019-02-23T08:48:33.908Z,60.59
2019-02-23T08:51:05.286Z,60.95
2019-02-23T08:53:36.549Z,60.84
2019-02-23T08:56:07.879Z,58.80
2019-02-23T08:58:39.046Z,57.51
2019-02-23T09:01:10.354Z,58.58
2019-02-23T09:03:41.675Z,57.72
2019-02-23T09:06:12.965Z,56.63
2019-02-23T09:08:44.261Z,57.84
2019-02-23T09:11:15.491Z,58.50
2019-02-23T09:13:46.822Z,57.47
2019-02-23T09:16:18.115Z,55.05
2019-02-23T09:18:49.503Z,55.71
2019-02-23T09:21:20.872Z,56.03
2019-02-23T09:23:52.121Z,54.22
2019-02-23T09:26:23.518Z,54.32
2019-02-23T09:28:54.942Z,54.27
2019-02-23T09:31:26.485Z,54.49
2019-02-23T09:33:57.804Z,55.23
2019-02-23T09:36:29.179Z,55.79
2019-02-23T09:39:00.536Z,57.45
2019-02-23T09:41:31.852Z,58.24
2019-02-23T09:44:03.131Z,58.02
2019-02-23T09:46:34.480Z,58.45
2019-02-23T09:49:05.816Z,59.13
2019-02-23T09:51:37.127Z,58.06
2019-02-23T09:54:08.510Z,58.26
2019-02-23T09:56:39.831Z,58.10
2019-02-23T10:23:50.057Z,40.09
2019-02-23T10:26:21.398Z,42.70
2019-02-23T10:28:52.797Z,45.39
2019-02-23T10:31:27.740Z,48.38
2019-02-23T10:33:59.102Z,50.71
2019-02-23T10:36:30.615Z,52.36
2019-02-23T10:39:01.897Z,52.59
2019-02-23T10:41:33.095Z,53.10
2019-02-23T10:44:04.438Z,53.39
2019-02-23T10:46:35.751Z,52.59
2019-02-23T10:49:07.109Z,52.52
2019-02-23T10:51:38.398Z,51.17
2019-02-23T10:54:09.869Z,50.83
2019-02-23T10:56:41.241Z,50.73
2019-02-23T10:59:12.660Z,50.81
2019-02-23T11:01:44.076Z,49.07
2019-02-23T11:04:15.480Z,49.71
2019-02-23T11:06:46.721Z,49.20
2019-02-23T11:09:23.109Z,48.00
2019-02-23T11:11:54.404Z,47.47
2019-02-23T11:14:25.670Z,47.31
2019-02-23T11:16:57.120Z,47.34
2019-02-23T11:19:28.372Z,47.73
2019-02-23T11:21:59.885Z,47.50
2019-02-23T11:24:31.761Z,46.36
2019-02-23T11:27:03.121Z,46.56
2019-02-23T11:29:34.470Z,46.38
2019-02-23T11:32:05.778Z,47.06
2019-02-23T11:34:39.590Z,46.55
2019-02-23T11:37:11.036Z,47.39
2019-02-23T11:39:42.432Z,45.70
2019-02-23T11:42:13.799Z,45.85
2019-02-23T11:44:45.201Z,45.39
2019-02-23T11:47:16.539Z,45.27
2019-02-23T11:49:49.235Z,46.08
2019-02-23T11:52:20.631Z,45.29
2019-02-23T11:54:51.886Z,44.98
2019-02-23T11:57:23.238Z,45.42
2019-02-23T11:59:56.994Z,45.25
2019-02-23T12:02:28.242Z,45.75
2019-02-23T12:04:59.537Z,44.75
2019-02-23T12:07:31.045Z,44.53
2019-02-23T12:10:02.363Z,44.46
2019-02-23T12:12:34.016Z,44.26
2019-02-23T12:15:05.624Z,44.73
2019-02-23T12:17:47.780Z,43.38
2019-02-23T12:20:20.261Z,42.60
2019-02-23T12:22:51.454Z,42.95
2019-02-23T12:25:22.831Z,43.36
2019-02-23T12:28:10.135Z,43.10
2019-02-23T12:30:41.629Z,43.09
2019-02-23T12:33:12.744Z,42.62
2019-02-23T12:35:44.745Z,42.73
2019-02-23T12:38:15.929Z,43.06
2019-02-23T12:40:47.189Z,42.24
2019-02-23T12:43:18.470Z,41.18
2019-02-23T12:45:49.748Z,41.71
2019-02-23T12:48:21.024Z,40.66
2019-02-23T12:50:52.322Z,41.65
2019-02-23T12:53:23.605Z,40.53
2019-02-23T12:55:54.864Z,41.76
2019-02-23T12:58:26.174Z,40.60
2019-02-23T13:00:57.448Z,40.25
2019-02-23T13:03:28.813Z,40.93
2019-02-23T13:06:00.067Z,40.71
2019-02-23T13:09:14.777Z,40.64
2019-02-23T13:11:57.084Z,40.11
2019-02-23T13:15:06.328Z,39.82
2019-02-23T13:18:34.333Z,40.05
2019-02-23T13:22:10.797Z,40.62
2019-02-23T13:25:42.092Z,39.19
2019-02-23T13:29:10.082Z,39.23
2019-02-23T13:32:55.336Z,38.61
2019-02-23T13:36:03.292Z,38.64
2019-02-23T13:39:41.704Z,38.17
2019-02-23T13:42:32.982Z,38.25
2019-02-23T13:46:26.204Z,39.15
2019-02-23T13:49:41.958Z,38.61
2019-02-23T13:52:53.043Z,37.63
2019-02-23T13:56:15.968Z,37.68
2019-02-23T13:59:52.322Z,37.79
2019-02-23T14:03:21.011Z,37.33
2019-02-23T14:06:11.293Z,36.76
2019-02-23T14:09:45.506Z,37.00
2019-02-23T14:13:04.322Z,37.50
2019-02-23T14:16:54.836Z,37.26
2019-02-23T14:20:19.491Z,37.11
2019-02-23T14:23:56.753Z,36.40
2019-02-23T14:27:44.661Z,36.81
2019-02-23T14:31:03.586Z,37.08
2019-02-23T14:34:37.096Z,37.08
2019-02-23T14:38:05.982Z,36.22
2019-02-23T14:41:35.389Z,35.84
2019-02-23T14:44:55.801Z,36.93
2019-02-23T14:47:57.941Z,36.93
2019-02-23T14:51:17.943Z,36.73
2019-02-23T14:54:34.061Z,37.07
2019-02-23T14:58:14.019Z,36.74
2019-02-23T15:02:12.072Z,36.41
2019-02-23T15:05:14.532Z,36.18
2019-02-23T15:08:42.856Z,36.30
2019-02-23T15:12:05.211Z,35.61
2019-02-23T15:15:56.035Z,40.03
2019-02-23T15:19:03.640Z,40.66
2019-02-23T15:22:20.352Z,41.18
2019-02-23T15:25:59.467Z,41.80
2019-02-23T15:29:26.784Z,41.04
2019-02-23T15:33:11.638Z,41.86
2019-02-23T15:36:37.674Z,42.22
2019-02-23T15:40:02.997Z,43.01
2019-02-23T15:43:32.861Z,42.78
2019-02-23T15:47:11.689Z,42.73
2019-02-23T15:49:42.927Z,43.08
2019-02-23T15:52:14.409Z,43.34
2019-02-23T15:54:45.921Z,43.30
2019-02-23T15:57:19.221Z,43.86
2019-02-23T15:59:50.154Z,43.75
2019-02-23T16:02:24.669Z,43.87
2019-02-23T16:04:56.024Z,43.64
2019-02-23T16:07:28.824Z,44.13
2019-02-23T16:10:00.219Z,44.01
2019-02-23T16:12:31.509Z,44.78
2019-02-23T16:15:02.803Z,44.42
2019-02-23T16:17:34.157Z,44.58
2019-02-23T16:20:05.792Z,44.65
2019-02-23T16:22:37.155Z,45.00
2019-02-23T16:25:09.336Z,45.36
2019-02-23T16:27:40.685Z,45.85
2019-02-23T16:30:12.407Z,45.89
2019-02-23T16:32:43.629Z,46.24
2019-02-23T16:35:14.977Z,46.49
2019-02-23T16:37:57.498Z,46.95
2019-02-23T16:40:31.715Z,47.19
2019-02-23T16:43:04.292Z,47.47
2019-02-23T16:45:35.672Z,47.68
2019-02-23T16:48:07.150Z,48.23
2019-02-23T16:50:38.609Z,48.75
2019-02-23T16:53:10.014Z,48.77
2019-02-23T16:55:50.557Z,49.62
2019-02-23T16:58:14.414Z,50.62
2019-02-23T17:00:45.600Z,50.39
2019-02-23T17:03:16.971Z,50.66
2019-02-23T17:05:48.542Z,50.52
2019-02-23T17:08:23.391Z,51.04
2019-02-23T17:10:55.453Z,51.03
2019-02-23T17:13:26.839Z,50.75
2019-02-23T17:15:58.284Z,50.97
2019-02-23T17:18:29.674Z,51.26
2019-02-23T17:21:01.006Z,51.63
2019-02-23T17:23:34.701Z,51.75
2019-02-23T17:26:06.263Z,51.84
2019-02-23T17:28:37.760Z,52.01
2019-02-23T17:31:09.365Z,52.12
2019-02-23T17:33:40.622Z,52.21
2019-02-23T17:36:26.320Z,52.69
2019-02-23T17:38:57.598Z,52.80
2019-02-23T17:41:28.954Z,52.64
2019-02-23T17:44:02.809Z,52.34
2019-02-23T17:46:35.311Z,52.55
2019-02-23T17:49:10.326Z,52.79
2019-02-23T17:51:44.997Z,53.21
2019-02-23T17:54:21.764Z,53.23
2019-02-23T17:56:54.682Z,53.56
2019-02-23T17:59:26.521Z,53.49
2019-02-23T18:01:59.765Z,54.12
2019-02-23T18:04:31.226Z,54.35
2019-02-23T18:07:02.639Z,54.38
2019-02-23T18:09:34.221Z,55.75
2019-02-23T18:12:08.718Z,56.29
2019-02-23T18:14:40.041Z,57.46
2019-02-23T18:17:11.558Z,57.62
2019-02-23T18:19:43.021Z,56.60
2019-02-23T18:22:14.327Z,56.35
2019-02-23T18:24:47.926Z,56.44
2019-02-23T18:27:19.625Z,56.75
2019-02-23T18:29:52.836Z,56.50
2019-02-23T18:32:24.373Z,56.77
2019-02-23T18:35:02.290Z,56.79
2019-02-23T18:37:35.743Z,57.83
2019-02-23T18:40:07.562Z,57.03
2019-02-23T18:42:39.098Z,57.69
2019-02-23T18:45:12.726Z,58.42
2019-02-23T18:47:48.187Z,58.29
2019-02-23T18:50:24.203Z,58.87
2019-02-23T18:52:57.053Z,58.99
2019-02-23T18:55:28.535Z,59.13
2019-02-23T18:58:05.031Z,59.72
2019-02-23T19:00:36.680Z,60.64
2019-02-23T19:08:09.814Z,60.05
2019-02-23T19:10:41.170Z,60.29
2019-02-23T19:13:18.470Z,60.39
2019-02-23T19:15:50.994Z,60.39
2019-02-23T19:18:23.225Z,60.51
2019-02-23T19:20:56.280Z,60.11
2019-02-23T19:23:32.759Z,60.67
2019-02-23T19:26:04.103Z,61.55
2019-02-23T19:28:44.068Z,61.34
2019-02-23T19:31:21.438Z,60.91
2019-02-23T19:33:58.557Z,62.29
2019-02-23T19:36:30.915Z,63.65
2019-02-23T19:39:07.239Z,63.23
2019-02-23T19:41:40.567Z,63.54
2019-02-23T19:44:11.988Z,63.20
2019-02-23T19:46:52.606Z,62.64
2019-02-23T19:49:23.953Z,63.05
2019-02-23T19:51:56.614Z,60.03
2019-02-23T19:54:28.390Z,59.53
2019-02-23T19:57:02.684Z,58.09
2019-02-23T19:59:35.513Z,57.50
2019-02-23T20:02:09.494Z,56.50
2019-02-23T20:04:43.001Z,57.93
2019-02-23T20:07:13.974Z,58.30
2019-02-23T20:09:45.414Z,58.64
2019-02-23T20:12:19.281Z,58.75
2019-02-23T20:14:50.642Z,58.10
2019-02-23T20:17:22.099Z,58.18
2019-02-23T20:19:55.438Z,58.45
2019-02-23T20:22:26.931Z,56.10
2019-02-23T20:24:58.308Z,56.60
2019-02-23T20:27:33.674Z,56.20
2019-02-23T20:30:04.992Z,57.00
2019-02-23T20:32:36.322Z,56.75
2019-02-23T20:35:08.036Z,57.42
2019-02-23T20:37:40.661Z,56.55
2019-02-23T20:40:12.301Z,56.33
2019-02-23T20:42:43.734Z,56.22
2019-02-23T20:45:15.268Z,56.34
2019-02-23T20:47:46.627Z,55.46
2019-02-23T20:50:18.082Z,53.31
2019-02-23T20:52:49.419Z,50.72
2019-02-23T20:55:26.581Z,48.50
2019-02-23T20:57:58.019Z,47.66
2019-02-23T21:00:29.396Z,47.18
2019-02-23T21:03:03.306Z,47.23
2019-02-23T21:05:33.872Z,47.23
2019-02-23T21:08:06.686Z,46.34
2019-02-23T21:10:38.161Z,44.69
2019-02-23T21:13:09.488Z,45.16
2019-02-23T21:15:40.784Z,44.40
2019-02-23T21:18:16.543Z,44.48
2019-02-23T21:20:51.773Z,45.25
2019-02-23T21:23:30.330Z,45.45
2019-02-23T21:26:01.768Z,45.92
2019-02-23T21:28:34.429Z,46.31
2019-02-23T21:31:05.803Z,46.47
2019-02-23T21:33:42.153Z,47.23
2019-02-23T21:36:13.539Z,46.54
2019-02-23T21:38:44.949Z,46.42
2019-02-23T21:41:16.365Z,47.26
2019-02-23T21:43:51.859Z,47.77
2019-02-23T21:46:23.277Z,46.54
2019-02-23T21:48:54.839Z,47.80
2019-02-23T21:51:26.728Z,46.13
2019-02-23T21:53:58.180Z,46.28
2019-02-23T21:56:29.871Z,46.56
2019-02-23T21:59:01.187Z,46.51
2019-02-23T22:01:36.461Z,47.21
2019-02-23T22:04:08.869Z,46.81
2019-02-23T22:06:40.162Z,45.88
2019-02-23T22:09:11.807Z,45.24
2019-02-23T22:11:43.212Z,45.24
2019-02-23T22:14:14.422Z,45.85
2019-02-23T22:16:48.417Z,45.53
2019-02-23T22:19:21.832Z,44.30
2019-02-23T22:21:52.664Z,44.02
2019-02-23T22:24:24.033Z,45.27
2019-02-23T22:26:55.417Z,45.90
2019-02-23T22:29:26.790Z,45.78
2019-02-23T22:31:59.485Z,46.83
2019-02-23T22:34:30.569Z,45.91
2019-02-23T22:37:01.930Z,47.76
2019-02-23T22:39:33.216Z,46.87
2019-02-23T22:42:04.476Z,45.76
2019-02-23T22:44:35.792Z,44.36
2019-02-23T22:47:07.260Z,44.93
2019-02-23T22:49:38.661Z,45.36
2019-02-23T22:52:09.790Z,45.41
2019-02-23T22:54:40.832Z,45.48
2019-02-23T22:57:12.066Z,46.12
2019-02-23T22:59:43.181Z,46.05
2019-02-23T23:02:14.333Z,47.74
2019-02-23T23:04:45.605Z,48.16
2019-02-23T23:07:16.773Z,48.65
2019-02-23T23:09:47.937Z,49.80
2019-02-23T23:12:21.924Z,49.77
2019-02-23T23:14:53.299Z,50.47
2019-02-23T23:17:24.570Z,50.97
2019-02-23T23:19:58.961Z,50.62
2019-02-23T23:22:30.247Z,49.56
2019-02-23T23:25:01.435Z,51.05
2019-02-23T23:27:32.796Z,50.86
2019-02-23T23:30:04.128Z,51.43
2019-02-23T23:35:10.419Z,53.25
2019-02-23T23:37:41.661Z,54.13
2019-02-23T23:40:12.921Z,54.31
2019-02-23T23:42:44.061Z,55.30
2019-02-23T23:45:15.347Z,54.97
2019-02-23T23:47:46.651Z,54.85
2019-02-23T23:50:17.909Z,56.10
2019-02-23T23:52:49.247Z,56.87
2019-02-23T23:55:20.524Z,57.39
2019-02-23T23:57:58.061Z,57.87
